createdAt,value
2023-03-26T00:00:26.123Z,39.93
2023-03-26T00:01:27.134Z,39.93
2023-03-26T00:02:26.197Z,39.92
2023-03-26T00:03:27.126Z,39.97
2023-03-26T00:04:26.110Z,39.96
2023-03-26T00:05:27.194Z,39.86
2023-03-26T00:06:27.077Z,39.95
2023-03-26T00:07:27.098Z,39.98
2023-03-26T00:08:27.173Z,39.93
2023-03-26T00:09:27.087Z,39.97
2023-03-26T00:10:27.069Z,39.93
2023-03-26T00:11:27.043Z,39.86
2023-03-26T00:12:27.053Z,39.92
2023-03-26T00:13:27.031Z,39.93
2023-03-26T00:14:26.025Z,39.94
2023-03-26T00:15:27.066Z,39.89
2023-03-26T00:16:27.039Z,39.86
2023-03-26T00:17:27.043Z,39.92
2023-03-26T00:18:27.027Z,40.02
2023-03-26T00:19:27.082Z,39.93
2023-03-26T00:20:26.979Z,39.89
2023-03-26T00:21:26.977Z,39.94
2023-03-26T00:22:26.986Z,39.92
2023-03-26T00:23:27.008Z,39.94
2023-03-26T00:24:26.957Z,39.93
2023-03-26T00:25:26.982Z,39.83
2023-03-26T00:26:26.946Z,39.86
2023-03-26T00:27:26.944Z,39.84
2023-03-26T00:28:26.935Z,39.92
2023-03-26T00:29:27.612Z,39.88
2023-03-26T00:30:26.963Z,39.89
2023-03-26T00:31:26.911Z,39.93
2023-03-26T00:32:26.965Z,39.86
2023-03-26T00:33:26.917Z,39.87
2023-03-26T00:34:26.915Z,39.89
2023-03-26T00:35:26.925Z,39.87
2023-03-26T00:36:26.051Z,39.90
2023-03-26T00:37:25.937Z,39.84
2023-03-26T00:38:25.865Z,39.83
2023-03-26T00:39:26.865Z,39.88
2023-03-26T00:40:26.862Z,39.80
2023-03-26T00:41:27.112Z,39.84
2023-03-26T00:42:26.847Z,39.88
2023-03-26T00:43:26.851Z,39.83
2023-03-26T00:44:26.815Z,39.81
2023-03-26T00:45:26.822Z,39.80
2023-03-26T00:46:26.950Z,39.84
2023-03-26T00:47:26.847Z,39.86
2023-03-26T00:48:37.901Z,39.90
2023-03-26T00:49:26.799Z,39.76
2023-03-26T00:50:27.139Z,39.79
2023-03-26T00:51:26.825Z,39.84
2023-03-26T00:52:26.791Z,39.85
2023-03-26T00:53:26.770Z,39.81
2023-03-26T00:54:26.753Z,39.80
2023-03-26T00:55:26.815Z,39.81
2023-03-26T00:56:25.772Z,39.86
2023-03-26T00:57:35.542Z,39.82
2023-03-26T00:58:26.738Z,39.84
2023-03-26T00:59:25.743Z,39.86
2023-03-26T01:00:26.740Z,39.86
2023-03-26T01:01:26.725Z,39.87
2023-03-26T01:02:26.781Z,39.89
2023-03-26T01:03:27.650Z,39.95
2023-03-26T01:04:25.897Z,39.82
2023-03-26T01:05:26.828Z,39.82
2023-03-26T01:06:26.787Z,39.87
2023-03-26T01:07:26.822Z,39.82
2023-03-26T01:08:26.819Z,39.81
2023-03-26T01:09:26.946Z,39.82
2023-03-26T01:10:26.835Z,39.78
2023-03-26T01:11:26.844Z,39.82
2023-03-26T01:12:26.828Z,39.86
2023-03-26T01:13:26.835Z,39.78
2023-03-26T01:14:25.877Z,39.88
2023-03-26T01:15:26.858Z,39.82
2023-03-26T01:16:26.989Z,39.81
2023-03-26T01:17:26.859Z,39.80
2023-03-26T01:18:26.891Z,39.77
2023-03-26T01:19:26.861Z,39.78
2023-03-26T01:20:26.952Z,39.78
2023-03-26T01:21:26.881Z,40.06
2023-03-26T01:22:26.885Z,40.01
2023-03-26T01:23:26.929Z,39.70
2023-03-26T01:24:26.876Z,39.80
2023-03-26T01:25:26.894Z,39.77
2023-03-26T01:26:26.881Z,39.78
2023-03-26T01:27:26.901Z,39.75
2023-03-26T01:28:26.968Z,39.72
2023-03-26T01:29:25.941Z,39.77
2023-03-26T01:30:26.956Z,39.82
2023-03-26T01:31:26.931Z,39.83
2023-03-26T01:32:27.020Z,39.87
2023-03-26T01:33:27.062Z,39.82
2023-03-26T01:34:26.958Z,39.74
2023-03-26T01:35:27.025Z,39.75
2023-03-26T01:36:26.975Z,39.76
2023-03-26T01:37:26.977Z,39.76
2023-03-26T01:38:26.987Z,39.76
2023-03-26T01:39:27.085Z,39.77
2023-03-26T01:40:27.024Z,39.78
2023-03-26T01:41:27.016Z,39.79
2023-03-26T01:42:26.015Z,39.79
2023-03-26T01:43:27.039Z,39.79
2023-03-26T01:44:27.033Z,39.78
2023-03-26T01:45:27.089Z,39.80
2023-03-26T01:46:27.114Z,39.87
2023-03-26T01:47:27.079Z,39.82
2023-03-26T01:48:27.083Z,39.73
2023-03-26T01:49:27.109Z,39.74
2023-03-26T01:50:27.107Z,39.78
2023-03-26T01:51:27.117Z,39.75
2023-03-26T01:52:27.114Z,39.74
2023-03-26T01:53:26.124Z,39.77
2023-03-26T01:54:26.132Z,39.77
2023-03-26T01:55:27.195Z,39.80
2023-03-26T01:56:27.166Z,39.77
2023-03-26T01:57:27.191Z,39.71
2023-03-26T01:58:27.215Z,39.64
2023-03-26T01:59:27.267Z,39.75
2023-03-26T02:00:27.238Z,39.80
2023-03-26T02:01:27.342Z,39.78
2023-03-26T02:02:26.416Z,39.84
2023-03-26T02:03:27.339Z,39.85
2023-03-26T02:04:27.252Z,39.78
2023-03-26T02:05:26.244Z,39.71
2023-03-26T02:06:27.279Z,39.73
2023-03-26T02:07:27.272Z,39.75
2023-03-26T02:08:27.283Z,39.73
2023-03-26T02:09:27.295Z,39.73
2023-03-26T02:10:27.286Z,39.79
2023-03-26T02:11:33.680Z,39.72
2023-03-26T02:12:27.302Z,39.74
2023-03-26T02:13:27.310Z,39.73
2023-03-26T02:14:27.308Z,39.79
2023-03-26T02:15:27.252Z,39.78
2023-03-26T02:16:27.346Z,39.74
2023-03-26T02:17:27.279Z,39.69
2023-03-26T02:18:27.244Z,39.78
2023-03-26T02:19:27.235Z,39.65
2023-03-26T02:20:27.237Z,39.63
2023-03-26T02:21:27.226Z,39.69
2023-03-26T02:22:27.225Z,39.74
2023-03-26T02:23:27.207Z,39.78
2023-03-26T02:24:27.211Z,39.76
2023-03-26T02:25:26.204Z,39.79
2023-03-26T02:26:26.189Z,39.80
2023-03-26T02:27:27.216Z,39.76
2023-03-26T02:28:27.190Z,39.78
2023-03-26T02:29:27.208Z,39.78
2023-03-26T02:30:27.151Z,39.79
2023-03-26T02:31:27.207Z,39.76
2023-03-26T02:32:29.165Z,39.87
2023-03-26T02:33:27.163Z,39.76
2023-03-26T02:34:27.148Z,39.65
2023-03-26T02:35:27.208Z,39.66
2023-03-26T02:36:26.268Z,39.64
2023-03-26T02:37:26.125Z,39.69
2023-03-26T02:38:26.110Z,39.71
2023-03-26T02:39:26.115Z,39.56
2023-03-26T02:40:27.109Z,39.56
2023-03-26T02:41:26.102Z,39.69
2023-03-26T02:42:26.086Z,39.76
2023-03-26T02:43:27.084Z,39.60
2023-03-26T02:44:27.064Z,39.64
2023-03-26T02:45:27.142Z,39.72
2023-03-26T02:46:27.088Z,39.65
2023-03-26T02:47:26.085Z,39.75
2023-03-26T02:48:26.046Z,39.79
2023-03-26T02:49:27.042Z,39.75
2023-03-26T02:50:27.040Z,39.67
2023-03-26T02:51:27.046Z,39.67
2023-03-26T02:52:27.026Z,39.67
2023-03-26T02:53:27.005Z,39.71
2023-03-26T02:54:26.997Z,39.72
2023-03-26T02:55:26.985Z,39.71
2023-03-26T02:56:26.972Z,39.71
2023-03-26T02:57:27.002Z,39.75
2023-03-26T02:58:26.978Z,39.95
2023-03-26T02:59:26.971Z,39.95
2023-03-26T03:00:26.958Z,39.74
2023-03-26T03:01:25.995Z,39.70
2023-03-26T03:02:26.989Z,39.65
2023-03-26T03:03:26.990Z,39.70
2023-03-26T03:04:25.955Z,39.71
2023-03-26T03:05:26.938Z,39.61
2023-03-26T03:06:26.919Z,39.70
2023-03-26T03:07:26.910Z,39.66
2023-03-26T03:08:26.925Z,39.69
2023-03-26T03:09:26.886Z,39.66
2023-03-26T03:10:26.886Z,39.65
2023-03-26T03:11:26.879Z,39.61
2023-03-26T03:12:26.877Z,39.65
2023-03-26T03:13:28.669Z,39.65
2023-03-26T03:14:26.845Z,39.69
2023-03-26T03:15:26.867Z,39.75
2023-03-26T03:16:26.944Z,39.76
2023-03-26T03:17:26.852Z,39.72
2023-03-26T03:18:25.842Z,39.66
2023-03-26T03:19:26.854Z,39.71
2023-03-26T03:20:26.840Z,39.74
2023-03-26T03:21:26.812Z,39.70
2023-03-26T03:22:26.821Z,39.65
2023-03-26T03:23:26.798Z,39.73
2023-03-26T03:24:26.797Z,39.66
2023-03-26T03:25:26.781Z,39.67
2023-03-26T03:26:26.816Z,39.61
2023-03-26T03:27:28.677Z,39.66
2023-03-26T03:28:26.783Z,39.56
2023-03-26T03:29:26.742Z,39.69
2023-03-26T03:30:25.762Z,39.71
2023-03-26T03:31:26.791Z,39.81
2023-03-26T03:32:25.782Z,39.88
2023-03-26T03:33:26.729Z,39.87
2023-03-26T03:34:26.724Z,39.74
2023-03-26T03:35:26.773Z,39.72
2023-03-26T03:36:26.710Z,39.69
2023-03-26T03:37:26.696Z,39.67
2023-03-26T03:38:26.675Z,39.71
2023-03-26T03:39:25.731Z,39.76
2023-03-26T03:40:26.671Z,39.77
2023-03-26T03:41:25.664Z,39.66
2023-03-26T03:42:26.671Z,39.67
2023-03-26T03:43:26.652Z,39.72
2023-03-26T03:44:26.638Z,39.70
2023-03-26T03:45:26.630Z,39.66
2023-03-26T03:46:25.691Z,39.60
2023-03-26T03:47:26.663Z,39.62
2023-03-26T03:48:26.630Z,39.62
2023-03-26T03:49:26.629Z,39.60
2023-03-26T03:50:25.601Z,39.65
2023-03-26T03:51:26.616Z,39.65
2023-03-26T03:52:27.176Z,39.59
2023-03-26T03:53:25.603Z,39.63
2023-03-26T03:54:26.583Z,39.62
2023-03-26T03:55:25.579Z,39.63
2023-03-26T03:56:26.591Z,39.66
2023-03-26T03:57:27.197Z,39.65
2023-03-26T03:58:26.601Z,39.63
2023-03-26T03:59:26.552Z,39.66
2023-03-26T04:00:26.523Z,39.63
2023-03-26T04:01:26.590Z,39.67
2023-03-26T04:02:27.067Z,39.73
2023-03-26T04:03:33.655Z,39.62
2023-03-26T04:04:26.557Z,39.57
2023-03-26T04:05:25.499Z,39.59
2023-03-26T04:06:26.536Z,39.60
2023-03-26T04:07:26.610Z,39.62
2023-03-26T04:08:25.503Z,39.54
2023-03-26T04:09:26.483Z,39.60
2023-03-26T04:10:26.460Z,39.62
2023-03-26T04:11:26.459Z,39.59
2023-03-26T04:12:25.453Z,39.62
2023-03-26T04:13:26.455Z,39.60
2023-03-26T04:14:26.435Z,39.60
2023-03-26T04:15:26.431Z,39.65
2023-03-26T04:16:26.427Z,39.59
2023-03-26T04:17:25.536Z,39.65
2023-03-26T04:18:25.415Z,39.72
2023-03-26T04:19:26.415Z,39.65
2023-03-26T04:20:26.392Z,39.58
2023-03-26T04:21:26.416Z,39.57
2023-03-26T04:22:26.434Z,39.58
2023-03-26T04:23:26.383Z,39.62
2023-03-26T04:24:26.361Z,39.64
2023-03-26T04:25:26.359Z,39.55
2023-03-26T04:26:26.355Z,39.58
2023-03-26T04:27:26.383Z,39.54
2023-03-26T04:28:26.364Z,39.53
2023-03-26T04:29:26.319Z,39.56
2023-03-26T04:30:26.304Z,39.64
2023-03-26T04:31:26.328Z,39.56
2023-03-26T04:32:25.324Z,39.52
2023-03-26T04:33:26.300Z,39.55
2023-03-26T04:34:26.358Z,39.59
2023-03-26T04:35:26.301Z,39.61
2023-03-26T04:36:26.281Z,39.66
2023-03-26T04:37:26.279Z,39.57
2023-03-26T04:38:26.266Z,39.52
2023-03-26T04:39:26.313Z,39.54
2023-03-26T04:40:26.244Z,39.58
2023-03-26T04:41:26.367Z,39.57
2023-03-26T04:42:26.233Z,39.53
2023-03-26T04:43:28.201Z,39.42
2023-03-26T04:44:26.204Z,39.40
2023-03-26T04:45:26.215Z,39.49
2023-03-26T04:46:25.214Z,39.42
2023-03-26T04:47:26.226Z,39.52
2023-03-26T04:48:26.214Z,39.54
2023-03-26T04:49:26.200Z,39.54
2023-03-26T04:50:26.176Z,39.50
2023-03-26T04:51:26.194Z,39.47
2023-03-26T04:52:26.167Z,39.54
2023-03-26T04:53:26.160Z,39.52
2023-03-26T04:54:26.149Z,39.60
2023-03-26T04:55:26.141Z,39.60
2023-03-26T04:56:26.144Z,39.47
2023-03-26T04:57:26.153Z,39.57
2023-03-26T04:58:26.127Z,39.54
2023-03-26T04:59:25.119Z,39.49
2023-03-26T05:00:26.116Z,39.49
2023-03-26T05:01:26.125Z,39.50
2023-03-26T05:02:26.242Z,39.52
2023-03-26T05:03:26.083Z,39.54
2023-03-26T05:04:26.122Z,39.50
2023-03-26T05:05:26.079Z,39.45
2023-03-26T05:06:26.063Z,39.40
2023-03-26T05:07:26.090Z,39.51
2023-03-26T05:08:26.052Z,39.50
2023-03-26T05:09:26.037Z,39.46
2023-03-26T05:10:26.037Z,39.54
2023-03-26T05:11:26.021Z,39.49
2023-03-26T05:12:26.018Z,39.56
2023-03-26T05:13:26.015Z,39.47
2023-03-26T05:14:26.021Z,39.52
2023-03-26T05:15:25.990Z,39.49
2023-03-26T05:16:26.047Z,39.56
2023-03-26T05:17:26.008Z,39.55
2023-03-26T05:18:25.972Z,39.43
2023-03-26T05:19:25.962Z,39.42
2023-03-26T05:20:25.965Z,39.46
2023-03-26T05:21:25.985Z,39.46
2023-03-26T05:22:25.936Z,39.51
2023-03-26T05:23:25.957Z,39.49
2023-03-26T05:24:26.721Z,39.41
2023-03-26T05:25:24.920Z,39.59
2023-03-26T05:26:25.926Z,39.42
2023-03-26T05:27:25.916Z,39.44
2023-03-26T05:28:25.899Z,39.47
2023-03-26T05:29:25.910Z,39.54
2023-03-26T05:30:25.880Z,39.56
2023-03-26T05:31:25.870Z,39.56
2023-03-26T05:32:25.896Z,39.51
2023-03-26T05:33:24.966Z,39.51
2023-03-26T05:34:25.896Z,39.51
2023-03-26T05:35:25.966Z,39.43
2023-03-26T05:36:25.976Z,39.47
2023-03-26T05:37:25.979Z,39.44
2023-03-26T05:38:26.029Z,39.49
2023-03-26T05:39:26.045Z,39.48
2023-03-26T05:40:25.038Z,39.44
2023-03-26T05:41:26.083Z,39.47
2023-03-26T05:42:26.105Z,39.42
2023-03-26T05:43:26.336Z,39.43
2023-03-26T05:44:26.171Z,39.46
2023-03-26T05:45:26.192Z,39.47
2023-03-26T05:46:26.265Z,39.52
2023-03-26T05:47:26.255Z,39.49
2023-03-26T05:48:26.318Z,39.53
2023-03-26T05:49:25.325Z,39.48
2023-03-26T05:50:26.318Z,39.46
2023-03-26T05:51:26.336Z,39.46
2023-03-26T05:52:26.351Z,39.43
2023-03-26T05:53:26.413Z,39.48
2023-03-26T05:54:26.396Z,39.48
2023-03-26T05:55:26.680Z,39.49
2023-03-26T05:56:26.433Z,39.48
2023-03-26T05:57:26.471Z,39.52
2023-03-26T05:58:26.579Z,39.46
2023-03-26T05:59:26.523Z,39.48
2023-03-26T06:00:26.557Z,39.46
2023-03-26T06:01:26.565Z,39.54
2023-03-26T06:02:26.627Z,39.47
2023-03-26T06:03:26.723Z,39.47
2023-03-26T06:04:26.697Z,39.47
2023-03-26T06:05:26.640Z,39.52
2023-03-26T06:06:25.674Z,39.49
2023-03-26T06:07:26.755Z,39.49
2023-03-26T06:08:26.750Z,39.46
2023-03-26T06:09:26.814Z,39.51
2023-03-26T06:10:26.801Z,39.47
2023-03-26T06:11:26.796Z,39.46
2023-03-26T06:12:26.823Z,39.43
2023-03-26T06:13:26.912Z,39.47
2023-03-26T06:14:26.876Z,39.46
2023-03-26T06:15:26.945Z,39.53
2023-03-26T06:16:27.721Z,39.48
2023-03-26T06:17:27.006Z,39.48
2023-03-26T06:18:27.049Z,39.47
2023-03-26T06:19:27.080Z,39.41
2023-03-26T06:20:27.087Z,39.46
2023-03-26T06:21:27.068Z,39.43
2023-03-26T06:22:27.094Z,39.41
2023-03-26T06:23:27.131Z,39.38
2023-03-26T06:24:26.191Z,39.46
2023-03-26T06:25:26.192Z,39.48
2023-03-26T06:26:27.200Z,39.51
2023-03-26T06:27:27.243Z,39.52
2023-03-26T06:28:27.281Z,39.48
2023-03-26T06:29:27.280Z,39.42
2023-03-26T06:30:27.321Z,39.39
2023-03-26T06:31:27.403Z,39.38
2023-03-26T06:32:27.404Z,39.43
2023-03-26T06:33:27.411Z,39.42
2023-03-26T06:34:27.437Z,39.42
2023-03-26T06:35:27.444Z,39.44
2023-03-26T06:36:26.544Z,39.41
2023-03-26T06:37:26.495Z,39.40
2023-03-26T06:38:27.544Z,39.43
2023-03-26T06:39:27.560Z,39.39
2023-03-26T06:40:27.602Z,39.43
2023-03-26T06:41:27.633Z,39.42
2023-03-26T06:42:32.049Z,39.42
2023-03-26T06:43:27.701Z,39.41
2023-03-26T06:44:27.663Z,39.38
2023-03-26T06:45:27.624Z,39.42
2023-03-26T06:46:26.636Z,39.39
2023-03-26T06:47:27.683Z,39.43
2023-03-26T06:48:27.608Z,39.47
2023-03-26T06:49:27.615Z,39.39
2023-03-26T06:50:27.591Z,39.38
2023-03-26T06:51:27.590Z,39.38
2023-03-26T06:52:26.634Z,39.44
2023-03-26T06:53:26.572Z,39.41
2023-03-26T06:54:26.554Z,39.39
2023-03-26T06:55:27.616Z,39.38
2023-03-26T06:56:26.557Z,39.38
2023-03-26T06:57:27.566Z,39.41
2023-03-26T06:58:27.533Z,39.42
2023-03-26T06:59:27.579Z,39.47
2023-03-26T07:00:27.569Z,39.43
2023-03-26T07:01:27.602Z,39.35
2023-03-26T07:02:26.678Z,39.32
2023-03-26T07:03:27.636Z,39.40
2023-03-26T07:04:27.784Z,39.39
2023-03-26T07:05:27.745Z,39.56
2023-03-26T07:06:27.738Z,39.46
2023-03-26T07:07:27.735Z,39.38
2023-03-26T07:08:27.764Z,39.32
2023-03-26T07:09:27.812Z,39.38
2023-03-26T07:10:27.825Z,39.38
2023-03-26T07:11:26.880Z,39.34
2023-03-26T07:12:27.867Z,39.36
2023-03-26T07:13:27.945Z,39.37
2023-03-26T07:14:27.961Z,39.38
2023-03-26T07:15:27.977Z,39.37
2023-03-26T07:16:28.012Z,39.35
2023-03-26T07:17:28.051Z,39.46
2023-03-26T07:18:28.045Z,39.49
2023-03-26T07:19:27.062Z,39.43
2023-03-26T07:20:27.113Z,39.43
2023-03-26T07:21:28.130Z,39.42
2023-03-26T07:22:28.152Z,39.36
2023-03-26T07:23:27.178Z,39.30
2023-03-26T07:24:28.278Z,39.33
2023-03-26T07:25:27.238Z,39.33
2023-03-26T07:26:28.271Z,39.27
2023-03-26T07:27:28.295Z,39.28
2023-03-26T07:28:28.351Z,39.31
2023-03-26T07:29:28.356Z,39.28
2023-03-26T07:30:28.372Z,39.25
2023-03-26T07:31:28.452Z,39.26
2023-03-26T07:32:28.428Z,39.30
2023-03-26T07:33:28.490Z,39.30
2023-03-26T07:34:28.553Z,39.37
2023-03-26T07:35:28.584Z,39.31
2023-03-26T07:36:28.539Z,39.30
2023-03-26T07:37:27.542Z,39.30
2023-03-26T07:38:27.601Z,39.30
2023-03-26T07:39:28.598Z,39.32
2023-03-26T07:40:28.623Z,39.26
2023-03-26T07:41:28.644Z,39.26
2023-03-26T07:42:28.689Z,39.20
2023-03-26T07:43:28.706Z,39.23
2023-03-26T07:44:28.738Z,39.23
2023-03-26T07:45:28.802Z,39.21
2023-03-26T07:46:28.777Z,39.18
2023-03-26T07:47:27.879Z,39.16
2023-03-26T07:48:28.842Z,39.16
2023-03-26T07:49:28.921Z,39.19
2023-03-26T07:50:28.909Z,39.15
2023-03-26T07:51:28.912Z,39.14
2023-03-26T07:52:28.960Z,39.10
2023-03-26T07:53:28.958Z,39.13
2023-03-26T07:54:29.003Z,39.09
2023-03-26T07:55:29.009Z,39.13
2023-03-26T07:56:29.092Z,39.10
2023-03-26T07:57:28.075Z,39.08
2023-03-26T07:58:29.109Z,39.09
2023-03-26T07:59:29.103Z,39.07
2023-03-26T08:00:28.071Z,39.07
2023-03-26T08:01:29.101Z,38.98
2023-03-26T08:02:29.166Z,38.95
2023-03-26T08:03:29.273Z,38.95
2023-03-26T08:04:28.320Z,38.89
2023-03-26T08:05:29.753Z,38.92
2023-03-26T08:06:29.188Z,38.92
2023-03-26T08:07:29.215Z,38.91
2023-03-26T08:08:29.252Z,38.92
2023-03-26T08:09:29.253Z,38.92
2023-03-26T08:10:29.264Z,38.88
2023-03-26T08:11:29.295Z,38.87
2023-03-26T08:12:29.308Z,38.86
2023-03-26T08:13:29.321Z,38.90
2023-03-26T08:14:29.407Z,38.87
2023-03-26T08:15:28.361Z,38.87
2023-03-26T08:16:29.360Z,38.91
2023-03-26T08:17:31.146Z,38.88
2023-03-26T08:18:29.362Z,38.82
2023-03-26T08:19:28.397Z,38.80
2023-03-26T08:20:28.455Z,38.75
2023-03-26T08:21:29.399Z,38.82
2023-03-26T08:22:29.348Z,38.79
2023-03-26T08:23:29.347Z,38.77
2023-03-26T08:24:29.343Z,38.77
2023-03-26T08:25:29.315Z,38.73
2023-03-26T08:26:29.313Z,38.71
2023-03-26T08:27:29.296Z,38.70
2023-03-26T08:28:29.323Z,38.68
2023-03-26T08:29:29.385Z,38.61
2023-03-26T08:30:29.309Z,38.63
2023-03-26T08:31:28.335Z,38.64
2023-03-26T08:32:29.304Z,38.62
2023-03-26T08:33:28.270Z,38.65
2023-03-26T08:34:28.266Z,38.65
2023-03-26T08:35:29.316Z,38.60
2023-03-26T08:36:29.246Z,38.60
2023-03-26T08:37:29.296Z,38.55
2023-03-26T08:38:29.231Z,38.56
2023-03-26T08:39:28.207Z,38.56
2023-03-26T08:40:29.322Z,38.54
2023-03-26T08:41:29.220Z,38.53
2023-03-26T08:42:29.190Z,38.51
2023-03-26T08:43:29.212Z,38.50
2023-03-26T08:44:29.189Z,38.51
2023-03-26T08:45:29.192Z,38.53
2023-03-26T08:46:29.185Z,38.49
2023-03-26T08:47:28.239Z,38.46
2023-03-26T08:48:29.136Z,38.53
2023-03-26T08:49:29.818Z,38.50
2023-03-26T08:50:29.168Z,38.48
2023-03-26T08:51:29.165Z,38.57
2023-03-26T08:52:29.121Z,38.51
2023-03-26T08:53:28.120Z,38.50
2023-03-26T08:54:28.103Z,38.46
2023-03-26T08:55:29.114Z,38.48
2023-03-26T08:56:28.103Z,38.39
2023-03-26T08:57:29.086Z,38.43
2023-03-26T08:58:29.071Z,38.34
2023-03-26T08:59:29.061Z,38.35
2023-03-26T09:00:29.049Z,38.35
2023-03-26T09:01:29.120Z,38.37
2023-03-26T09:02:29.053Z,38.37
2023-03-26T09:03:28.042Z,38.34
2023-03-26T09:04:29.066Z,38.38
2023-03-26T09:05:29.019Z,38.39
2023-03-26T09:06:29.018Z,38.41
2023-03-26T09:07:29.024Z,38.32
2023-03-26T09:08:30.292Z,38.34
2023-03-26T09:09:27.992Z,38.37
2023-03-26T09:10:28.979Z,38.38
2023-03-26T09:11:28.976Z,38.37
2023-03-26T09:12:28.957Z,38.31
2023-03-26T09:13:28.958Z,38.37
2023-03-26T09:14:29.026Z,38.34
2023-03-26T09:15:27.954Z,38.34
2023-03-26T09:16:28.988Z,38.35
2023-03-26T09:17:28.974Z,38.35
2023-03-26T09:18:28.928Z,38.34
2023-03-26T09:19:28.932Z,38.37
2023-03-26T09:20:28.929Z,38.36
2023-03-26T09:21:28.952Z,38.33
2023-03-26T09:22:28.913Z,38.37
2023-03-26T09:23:28.942Z,38.36
2023-03-26T09:24:28.907Z,38.39
2023-03-26T09:25:28.887Z,38.39
2023-03-26T09:26:27.952Z,38.32
2023-03-26T09:27:28.879Z,38.43
2023-03-26T09:28:28.978Z,38.38
2023-03-26T09:29:29.719Z,38.42
2023-03-26T09:30:28.872Z,38.43
2023-03-26T09:31:27.939Z,38.45
2023-03-26T09:32:28.936Z,38.44
2023-03-26T09:33:28.853Z,38.47
2023-03-26T09:34:28.874Z,38.40
2023-03-26T09:35:28.861Z,38.39
2023-03-26T09:36:28.840Z,38.41
2023-03-26T09:37:28.835Z,38.39
2023-03-26T09:38:28.862Z,38.39
2023-03-26T09:39:28.844Z,38.41
2023-03-26T09:40:28.795Z,38.42
2023-03-26T09:41:28.799Z,38.40
2023-03-26T09:42:28.786Z,38.41
2023-03-26T09:43:28.778Z,38.45
2023-03-26T09:44:28.773Z,38.39
2023-03-26T09:45:28.856Z,38.44
2023-03-26T09:46:28.786Z,38.41
2023-03-26T09:47:28.802Z,38.43
2023-03-26T09:48:28.755Z,38.41
2023-03-26T09:49:27.728Z,38.43
2023-03-26T09:50:28.734Z,38.44
2023-03-26T09:51:28.720Z,38.43
2023-03-26T09:52:28.719Z,38.48
2023-03-26T09:53:28.721Z,38.47
2023-03-26T09:54:28.704Z,38.44
2023-03-26T09:55:28.741Z,38.44
2023-03-26T09:56:27.707Z,38.43
2023-03-26T09:57:28.695Z,38.44
2023-03-26T09:58:27.675Z,38.43
2023-03-26T09:59:28.663Z,38.44
2023-03-26T10:00:28.673Z,38.43
2023-03-26T10:01:28.662Z,38.38
2023-03-26T10:02:46.890Z,38.39
2023-03-26T10:03:28.710Z,38.42
2023-03-26T10:04:28.680Z,38.38
2023-03-26T10:05:28.614Z,38.38
2023-03-26T10:06:28.630Z,38.40
2023-03-26T10:07:27.601Z,38.42
2023-03-26T10:08:28.471Z,38.42
2023-03-26T10:09:27.600Z,38.45
2023-03-26T10:10:28.583Z,38.43
2023-03-26T10:11:28.620Z,38.35
2023-03-26T10:12:27.558Z,38.40
2023-03-26T10:13:27.555Z,38.40
2023-03-26T10:14:28.554Z,38.37
2023-03-26T10:15:27.548Z,38.40
2023-03-26T10:16:28.645Z,38.44
2023-03-26T10:17:27.569Z,38.39
2023-03-26T10:18:29.898Z,38.42
2023-03-26T10:19:28.503Z,38.38
2023-03-26T10:20:27.515Z,38.43
2023-03-26T10:21:28.659Z,38.39
2023-03-26T10:22:28.507Z,38.37
2023-03-26T10:23:28.498Z,38.40
2023-03-26T10:24:28.470Z,38.45
2023-03-26T10:25:28.477Z,38.38
2023-03-26T10:26:28.471Z,38.39
2023-03-26T10:27:30.318Z,38.42
2023-03-26T10:28:28.469Z,38.43
2023-03-26T10:29:27.440Z,38.43
2023-03-26T10:30:28.464Z,38.40
2023-03-26T10:31:28.599Z,38.42
2023-03-26T10:32:28.538Z,38.37
2023-03-26T10:33:28.410Z,38.34
2023-03-26T10:34:28.434Z,38.39
2023-03-26T10:35:28.407Z,38.38
2023-03-26T10:36:28.386Z,38.41
2023-03-26T10:37:28.418Z,38.37
2023-03-26T10:38:28.380Z,38.40
2023-03-26T10:39:37.304Z,38.39
2023-03-26T10:40:28.373Z,38.41
2023-03-26T10:41:28.354Z,38.39
2023-03-26T10:42:28.383Z,38.44
2023-03-26T10:43:28.483Z,38.48
2023-03-26T10:44:28.362Z,38.45
2023-03-26T10:45:28.354Z,38.40
2023-03-26T10:46:28.367Z,38.41
2023-03-26T10:47:28.400Z,38.35
2023-03-26T10:48:28.317Z,38.37
2023-03-26T10:49:28.327Z,38.39
2023-03-26T10:50:28.280Z,38.39
2023-03-26T10:51:28.325Z,38.51
2023-03-26T10:52:28.290Z,38.36
2023-03-26T10:53:27.309Z,38.34
2023-03-26T10:54:28.275Z,38.41
2023-03-26T10:55:28.387Z,38.41
2023-03-26T10:56:28.289Z,38.44
2023-03-26T10:57:27.300Z,38.34
2023-03-26T10:58:28.271Z,38.45
2023-03-26T10:59:28.276Z,38.44
2023-03-26T11:00:28.542Z,38.41
2023-03-26T11:01:28.328Z,38.41
2023-03-26T11:02:30.523Z,38.48
2023-03-26T11:03:28.207Z,38.47
2023-03-26T11:04:27.184Z,38.51
2023-03-26T11:05:28.296Z,38.36
2023-03-26T11:06:28.200Z,38.33
2023-03-26T11:07:27.199Z,38.35
2023-03-26T11:08:31.466Z,38.34
2023-03-26T11:09:28.170Z,38.34
2023-03-26T11:10:28.164Z,38.35
2023-03-26T11:11:28.154Z,38.38
2023-03-26T11:12:28.603Z,38.38
2023-03-26T11:13:28.138Z,38.33
2023-03-26T11:14:34.416Z,38.33
2023-03-26T11:15:28.298Z,38.39
2023-03-26T11:16:27.134Z,38.35
2023-03-26T11:17:40.414Z,38.41
2023-03-26T11:18:28.120Z,38.40
2023-03-26T11:19:27.085Z,38.42
2023-03-26T11:20:28.092Z,38.38
2023-03-26T11:21:28.070Z,38.45
2023-03-26T11:22:28.088Z,38.38
2023-03-26T11:23:28.110Z,38.48
2023-03-26T11:24:28.047Z,38.33
2023-03-26T11:25:28.049Z,38.28
2023-03-26T11:26:28.032Z,38.43
2023-03-26T11:27:28.037Z,38.49
2023-03-26T11:28:27.014Z,38.36
2023-03-26T11:29:32.467Z,38.38
2023-03-26T11:30:28.055Z,38.41
2023-03-26T11:31:27.091Z,38.28
2023-03-26T11:32:28.032Z,38.39
2023-03-26T11:33:32.706Z,38.33
2023-03-26T11:34:27.982Z,38.26
2023-03-26T11:35:39.258Z,38.31
2023-03-26T11:36:28.015Z,38.38
2023-03-26T11:37:27.973Z,38.30
2023-03-26T11:38:27.945Z,38.27
2023-03-26T11:39:27.962Z,38.28
2023-03-26T11:40:27.943Z,38.29
2023-03-26T11:41:27.948Z,38.32
2023-03-26T11:42:27.955Z,38.29
2023-03-26T11:43:27.926Z,38.33
2023-03-26T11:44:27.919Z,38.25
2023-03-26T11:45:27.912Z,38.29
2023-03-26T11:46:28.034Z,38.33
2023-03-26T11:47:27.970Z,38.32
2023-03-26T11:48:27.888Z,38.29
2023-03-26T11:49:27.873Z,38.28
2023-03-26T11:50:27.863Z,38.26
2023-03-26T11:51:27.846Z,38.23
2023-03-26T11:52:26.866Z,38.26
2023-03-26T11:53:27.831Z,38.29
2023-03-26T11:54:27.832Z,38.29
2023-03-26T11:55:27.823Z,38.39
2023-03-26T11:56:27.816Z,38.27
2023-03-26T11:57:26.888Z,38.27
2023-03-26T11:58:27.892Z,38.30
2023-03-26T11:59:27.801Z,38.22
2023-03-26T12:00:27.828Z,38.30
2023-03-26T12:01:27.778Z,38.28
2023-03-26T12:02:27.907Z,38.27
2023-03-26T12:03:27.773Z,38.27
2023-03-26T12:04:29.913Z,38.27
2023-03-26T12:05:26.829Z,38.23
2023-03-26T12:06:27.742Z,38.21
2023-03-26T12:07:27.721Z,38.22
2023-03-26T12:08:27.717Z,38.21
2023-03-26T12:09:27.744Z,38.22
2023-03-26T12:10:27.707Z,38.24
2023-03-26T12:11:27.703Z,38.24
2023-03-26T12:12:27.719Z,38.23
2023-03-26T12:13:27.705Z,38.21
2023-03-26T12:14:27.712Z,38.26
2023-03-26T12:15:27.685Z,38.26
2023-03-26T12:16:27.762Z,38.18
2023-03-26T12:17:31.347Z,38.21
2023-03-26T12:18:27.731Z,38.23
2023-03-26T12:19:27.672Z,38.22
2023-03-26T12:20:26.684Z,38.24
2023-03-26T12:21:26.638Z,38.24
2023-03-26T12:22:27.704Z,38.23
2023-03-26T12:23:26.620Z,38.23
2023-03-26T12:24:27.605Z,38.19
2023-03-26T12:25:26.604Z,38.23
2023-03-26T12:26:27.588Z,38.23
2023-03-26T12:27:27.591Z,38.21
2023-03-26T12:28:27.582Z,38.19
2023-03-26T12:29:27.620Z,38.18
2023-03-26T12:30:27.570Z,38.19
2023-03-26T12:31:27.576Z,38.22
2023-03-26T12:32:42.954Z,38.22
2023-03-26T12:33:27.562Z,38.21
2023-03-26T12:34:26.529Z,38.21
2023-03-26T12:35:27.592Z,38.24
2023-03-26T12:36:27.527Z,38.21
2023-03-26T12:37:27.537Z,38.23
2023-03-26T12:38:26.514Z,38.23
2023-03-26T12:40:09.700Z,38.24
2023-03-26T12:40:27.542Z,38.22
2023-03-26T12:42:52.657Z,38.24
2023-03-26T12:44:49.467Z,38.21
2023-03-26T12:44:49.934Z,38.19
2023-03-26T12:44:56.578Z,38.23
2023-03-26T12:45:27.452Z,38.24
2023-03-26T12:47:56.475Z,38.24
2023-03-26T12:47:58.982Z,38.31
2023-03-26T12:48:27.493Z,38.23
2023-03-26T12:49:27.464Z,38.35
2023-03-26T12:50:34.275Z,38.37
2023-03-26T12:51:27.457Z,38.23
2023-03-26T12:52:27.392Z,38.37